Pindall, Arkansas
Current Conditions -  °F | °C
As of 3:53 AM on Saturday 29 Nov 2014 (Local Time) from KHRO Reporting Station
Clear Clear  
Wind Chill: 57°   Ceiling: Unl
Heat Index: 57°   Visibility: 10mi
Dew Point: 46°   Wind: 8mph
Humidity: 67%   Direction: 170°S
Pressure: 29.85"   Gusts: 18mph
Location:  36.07°N, 92.88°W
Report Text: KHRO 290953Z AUTO 17007G16KT 140V220 10SM CLR 14/08 A2985 RMK AO2 SLP102 T01390078
Loading
Personal Weather Stations






























Interactive Weather Map New forecast layout! Learn more

10-Day Weather Forecast

Advertisements
Track Severe Weather on mobile